sensor_id;sensor_type;location;lat;lon;timestamp;P1;durP1;ratioP1;P2;durP2;ratioP2
76610;SDS011;65503;48.534;9.062;2023-09-12T00:00:05;15.32;;;10.02;;
76610;SDS011;65503;48.534;9.062;2023-09-12T00:02:32;15.88;;;10.73;;
76610;SDS011;65503;48.534;9.062;2023-09-12T00:04:58;15.05;;;10.13;;
76610;SDS011;65503;48.534;9.062;2023-09-12T00:07:25;16.42;;;10.55;;
76610;SDS011;65503;48.534;9.062;2023-09-12T00:09:51;15.27;;;11.07;;
76610;SDS011;65503;48.534;9.062;2023-09-12T00:12:21;15.82;;;10.25;;
76610;SDS011;65503;48.534;9.062;2023-09-12T00:14:49;15.18;;;10.40;;
76610;SDS011;65503;48.534;9.062;2023-09-12T00:17:15;19.58;;;10.50;;
76610;SDS011;65503;48.534;9.062;2023-09-12T00:19:42;19.73;;;10.93;;
76610;SDS011;65503;48.534;9.062;2023-09-12T00:22:09;15.60;;;10.63;;
76610;SDS011;65503;48.534;9.062;2023-09-12T00:24:36;17.30;;;9.57;;
76610;SDS011;65503;48.534;9.062;2023-09-12T00:27:04;17.15;;;10.75;;
76610;SDS011;65503;48.534;9.062;2023-09-12T00:29:31;17.65;;;10.85;;
76610;SDS011;65503;48.534;9.062;2023-09-12T00:31:58;15.88;;;11.13;;
76610;SDS011;65503;48.534;9.062;2023-09-12T00:34:25;16.20;;;11.25;;
76610;SDS011;65503;48.534;9.062;2023-09-12T00:36:52;16.25;;;10.63;;
76610;SDS011;65503;48.534;9.062;2023-09-12T00:39:18;16.73;;;11.15;;
76610;SDS011;65503;48.534;9.062;2023-09-12T00:41:45;13.75;;;10.15;;
76610;SDS011;65503;48.534;9.062;2023-09-12T00:44:11;14.32;;;10.40;;
76610;SDS011;65503;48.534;9.062;2023-09-12T00:46:38;15.07;;;10.57;;
76610;SDS011;65503;48.534;9.062;2023-09-12T00:49:06;17.30;;;11.38;;
76610;SDS011;65503;48.534;9.062;2023-09-12T00:51:35;16.98;;;11.35;;
76610;SDS011;65503;48.534;9.062;2023-09-12T00:54:02;16.38;;;11.27;;
76610;SDS011;65503;48.534;9.062;2023-09-12T00:56:29;16.17;;;10.68;;
76610;SDS011;65503;48.534;9.062;2023-09-12T00:58:56;16.05;;;10.73;;
76610;SDS011;65503;48.534;9.062;2023-09-12T01:01:23;20.33;;;11.00;;
76610;SDS011;65503;48.534;9.062;2023-09-12T01:03:50;16.73;;;10.90;;
76610;SDS011;65503;48.534;9.062;2023-09-12T01:06:18;15.70;;;10.52;;
76610;SDS011;65503;48.534;9.062;2023-09-12T01:08:47;21.20;;;11.27;;
76610;SDS011;65503;48.534;9.062;2023-09-12T01:11:14;15.68;;;11.40;;
76610;SDS011;65503;48.534;9.062;2023-09-12T01:13:43;16.25;;;11.43;;
76610;SDS011;65503;48.534;9.062;2023-09-12T01:16:09;17.65;;;12.02;;
76610;SDS011;65503;48.534;9.062;2023-09-12T01:18:36;19.02;;;12.10;;
76610;SDS011;65503;48.534;9.062;2023-09-12T01:21:11;15.95;;;10.95;;
76610;SDS011;65503;48.534;9.062;2023-09-12T01:24:11;16.85;;;11.57;;
76610;SDS011;65503;48.534;9.062;2023-09-12T01:29:33;17.00;;;11.73;;
76610;SDS011;65503;48.534;9.062;2023-09-12T01:32:01;19.35;;;11.55;;
76610;SDS011;65503;48.534;9.062;2023-09-12T01:34:29;15.13;;;11.00;;
76610;SDS011;65503;48.534;9.062;2023-09-12T01:36:55;15.48;;;10.38;;
76610;SDS011;65503;48.534;9.062;2023-09-12T01:39:22;17.42;;;11.35;;
76610;SDS011;65503;48.534;9.062;2023-09-12T01:41:48;17.15;;;10.70;;
76610;SDS011;65503;48.534;9.062;2023-09-12T01:44:16;16.90;;;11.82;;
76610;SDS011;65503;48.534;9.062;2023-09-12T01:46:44;24.73;;;11.52;;
76610;SDS011;65503;48.534;9.062;2023-09-12T01:49:12;18.58;;;12.15;;
76610;SDS011;65503;48.534;9.062;2023-09-12T01:51:41;21.08;;;12.02;;
76610;SDS011;65503;48.534;9.062;2023-09-12T01:54:08;18.27;;;12.30;;
76610;SDS011;65503;48.534;9.062;2023-09-12T01:56:36;21.38;;;11.90;;
76610;SDS011;65503;48.534;9.062;2023-09-12T02:01:29;17.88;;;11.38;;
76610;SDS011;65503;48.534;9.062;2023-09-12T02:03:56;19.88;;;12.27;;
76610;SDS011;65503;48.534;9.062;2023-09-12T02:06:23;16.85;;;12.38;;
76610;SDS011;65503;48.534;9.062;2023-09-12T02:08:50;19.38;;;12.20;;
76610;SDS011;65503;48.534;9.062;2023-09-12T02:11:16;18.02;;;12.05;;
76610;SDS011;65503;48.534;9.062;2023-09-12T02:13:43;17.48;;;11.85;;
76610;SDS011;65503;48.534;9.062;2023-09-12T02:16:09;17.17;;;12.02;;
76610;SDS011;65503;48.534;9.062;2023-09-12T02:18:36;17.83;;;12.30;;
76610;SDS011;65503;48.534;9.062;2023-09-12T02:21:03;20.13;;;11.35;;
76610;SDS011;65503;48.534;9.062;2023-09-12T02:23:29;17.50;;;11.88;;
76610;SDS011;65503;48.534;9.062;2023-09-12T02:25:55;16.30;;;10.90;;
76610;SDS011;65503;48.534;9.062;2023-09-12T02:28:22;18.48;;;12.40;;
76610;SDS011;65503;48.534;9.062;2023-09-12T02:30:49;18.17;;;11.77;;
76610;SDS011;65503;48.534;9.062;2023-09-12T02:33:15;17.55;;;11.60;;
76610;SDS011;65503;48.534;9.062;2023-09-12T02:35:42;20.42;;;12.07;;
76610;SDS011;65503;48.534;9.062;2023-09-12T02:38:08;21.40;;;12.77;;
76610;SDS011;65503;48.534;9.062;2023-09-12T02:40:35;18.60;;;12.30;;
76610;SDS011;65503;48.534;9.062;2023-09-12T02:43:02;19.63;;;11.98;;
76610;SDS011;65503;48.534;9.062;2023-09-12T02:45:28;17.88;;;12.35;;
76610;SDS011;65503;48.534;9.062;2023-09-12T02:47:55;21.58;;;12.63;;
76610;SDS011;65503;48.534;9.062;2023-09-12T02:50:21;20.52;;;12.32;;
76610;SDS011;65503;48.534;9.062;2023-09-12T02:52:48;20.17;;;13.90;;
76610;SDS011;65503;48.534;9.062;2023-09-12T02:55:14;24.08;;;14.43;;
76610;SDS011;65503;48.534;9.062;2023-09-12T02:57:41;17.75;;;12.77;;
76610;SDS011;65503;48.534;9.062;2023-09-12T03:00:08;18.58;;;12.65;;
76610;SDS011;65503;48.534;9.062;2023-09-12T03:02:35;20.95;;;13.45;;
76610;SDS011;65503;48.534;9.062;2023-09-12T03:05:02;18.40;;;11.85;;
76610;SDS011;65503;48.534;9.062;2023-09-12T03:07:29;19.05;;;11.95;;
76610;SDS011;65503;48.534;9.062;2023-09-12T03:09:56;18.17;;;12.00;;
76610;SDS011;65503;48.534;9.062;2023-09-12T03:12:22;21.55;;;13.45;;
76610;SDS011;65503;48.534;9.062;2023-09-12T03:14:49;20.23;;;12.77;;
76610;SDS011;65503;48.534;9.062;2023-09-12T03:17:16;20.17;;;13.07;;
76610;SDS011;65503;48.534;9.062;2023-09-12T03:19:42;21.98;;;12.98;;
76610;SDS011;65503;48.534;9.062;2023-09-12T03:22:08;21.52;;;13.55;;
76610;SDS011;65503;48.534;9.062;2023-09-12T03:24:35;19.08;;;12.82;;
76610;SDS011;65503;48.534;9.062;2023-09-12T03:27:02;17.50;;;12.15;;
76610;SDS011;65503;48.534;9.062;2023-09-12T03:29:29;18.90;;;11.57;;
76610;SDS011;65503;48.534;9.062;2023-09-12T03:31:55;18.95;;;11.80;;
76610;SDS011;65503;48.534;9.062;2023-09-12T03:34:22;18.13;;;12.35;;
76610;SDS011;65503;48.534;9.062;2023-09-12T03:36:49;19.33;;;12.10;;
76610;SDS011;65503;48.534;9.062;2023-09-12T03:39:15;19.02;;;12.65;;
76610;SDS011;65503;48.534;9.062;2023-09-12T03:41:42;21.27;;;12.60;;
76610;SDS011;65503;48.534;9.062;2023-09-12T03:44:08;20.88;;;13.55;;
76610;SDS011;65503;48.534;9.062;2023-09-12T03:46:35;20.33;;;12.73;;
76610;SDS011;65503;48.534;9.062;2023-09-12T03:49:01;17.92;;;12.57;;
76610;SDS011;65503;48.534;9.062;2023-09-12T03:51:28;17.90;;;11.90;;
76610;SDS011;65503;48.534;9.062;2023-09-12T03:53:55;19.02;;;12.05;;
76610;SDS011;65503;48.534;9.062;2023-09-12T03:56:22;20.35;;;12.57;;
76610;SDS011;65503;48.534;9.062;2023-09-12T03:58:48;20.90;;;13.00;;
76610;SDS011;65503;48.534;9.062;2023-09-12T04:01:15;24.67;;;13.82;;
76610;SDS011;65503;48.534;9.062;2023-09-12T04:03:41;18.52;;;13.23;;
76610;SDS011;65503;48.534;9.062;2023-09-12T04:06:08;21.20;;;12.43;;
76610;SDS011;65503;48.534;9.062;2023-09-12T04:11:02;18.63;;;12.80;;
76610;SDS011;65503;48.534;9.062;2023-09-12T04:13:28;19.33;;;12.35;;
76610;SDS011;65503;48.534;9.062;2023-09-12T04:15:55;18.27;;;11.90;;
76610;SDS011;65503;48.534;9.062;2023-09-12T04:18:22;19.35;;;12.68;;
76610;SDS011;65503;48.534;9.062;2023-09-12T04:20:48;20.05;;;13.10;;
76610;SDS011;65503;48.534;9.062;2023-09-12T04:23:15;21.00;;;12.40;;
76610;SDS011;65503;48.534;9.062;2023-09-12T04:25:42;19.25;;;12.10;;
76610;SDS011;65503;48.534;9.062;2023-09-12T04:28:11;22.27;;;14.18;;
76610;SDS011;65503;48.534;9.062;2023-09-12T04:30:38;19.20;;;12.95;;
76610;SDS011;65503;48.534;9.062;2023-09-12T04:33:06;20.02;;;12.68;;
76610;SDS011;65503;48.534;9.062;2023-09-12T04:35:33;19.20;;;13.30;;
76610;SDS011;65503;48.534;9.062;2023-09-12T04:38:00;22.92;;;13.35;;
76610;SDS011;65503;48.534;9.062;2023-09-12T04:40:27;23.55;;;14.35;;
76610;SDS011;65503;48.534;9.062;2023-09-12T04:42:53;20.77;;;13.60;;
76610;SDS011;65503;48.534;9.062;2023-09-12T04:45:20;20.70;;;13.82;;
76610;SDS011;65503;48.534;9.062;2023-09-12T04:47:46;23.88;;;15.07;;
76610;SDS011;65503;48.534;9.062;2023-09-12T04:50:13;29.50;;;17.55;;
76610;SDS011;65503;48.534;9.062;2023-09-12T04:52:40;25.02;;;15.65;;
76610;SDS011;65503;48.534;9.062;2023-09-12T04:55:07;23.05;;;15.60;;
76610;SDS011;65503;48.534;9.062;2023-09-12T04:57:34;26.55;;;16.35;;
76610;SDS011;65503;48.534;9.062;2023-09-12T05:00:00;28.05;;;17.15;;
76610;SDS011;65503;48.534;9.062;2023-09-12T05:02:27;22.45;;;15.43;;
76610;SDS011;65503;48.534;9.062;2023-09-12T05:04:54;21.17;;;13.93;;
76610;SDS011;65503;48.534;9.062;2023-09-12T05:07:21;21.20;;;13.23;;
76610;SDS011;65503;48.534;9.062;2023-09-12T05:09:48;21.40;;;12.70;;
76610;SDS011;65503;48.534;9.062;2023-09-12T05:12:15;20.98;;;13.40;;
76610;SDS011;65503;48.534;9.062;2023-09-12T05:14:41;23.75;;;15.48;;
76610;SDS011;65503;48.534;9.062;2023-09-12T05:17:08;21.50;;;13.75;;
76610;SDS011;65503;48.534;9.062;2023-09-12T05:19:34;21.67;;;14.30;;
76610;SDS011;65503;48.534;9.062;2023-09-12T05:22:01;28.17;;;15.18;;
76610;SDS011;65503;48.534;9.062;2023-09-12T05:24:27;19.95;;;14.35;;
76610;SDS011;65503;48.534;9.062;2023-09-12T05:26:54;26.15;;;16.98;;
76610;SDS011;65503;48.534;9.062;2023-09-12T05:29:20;26.63;;;15.05;;
76610;SDS011;65503;48.534;9.062;2023-09-12T05:31:47;23.05;;;14.98;;
76610;SDS011;65503;48.534;9.062;2023-09-12T05:34:14;21.48;;;13.98;;
76610;SDS011;65503;48.534;9.062;2023-09-12T05:36:40;19.48;;;14.07;;
76610;SDS011;65503;48.534;9.062;2023-09-12T05:39:07;22.88;;;12.60;;
76610;SDS011;65503;48.534;9.062;2023-09-12T05:41:33;15.98;;;10.73;;
76610;SDS011;65503;48.534;9.062;2023-09-12T05:44:00;16.38;;;10.88;;
76610;SDS011;65503;48.534;9.062;2023-09-12T05:46:27;13.70;;;10.07;;
76610;SDS011;65503;48.534;9.062;2023-09-12T05:48:53;17.30;;;9.63;;
76610;SDS011;65503;48.534;9.062;2023-09-12T05:51:20;18.00;;;8.80;;
76610;SDS011;65503;48.534;9.062;2023-09-12T05:53:46;12.30;;;8.63;;
76610;SDS011;65503;48.534;9.062;2023-09-12T05:56:13;19.30;;;8.90;;
76610;SDS011;65503;48.534;9.062;2023-09-12T05:58:40;14.60;;;9.00;;
76610;SDS011;65503;48.534;9.062;2023-09-12T06:01:09;15.65;;;9.07;;
76610;SDS011;65503;48.534;9.062;2023-09-12T06:03:35;14.18;;;8.73;;
76610;SDS011;65503;48.534;9.062;2023-09-12T06:06:02;14.82;;;8.38;;
76610;SDS011;65503;48.534;9.062;2023-09-12T06:08:29;19.73;;;8.73;;
76610;SDS011;65503;48.534;9.062;2023-09-12T06:10:56;12.27;;;7.75;;
76610;SDS011;65503;48.534;9.062;2023-09-12T06:13:22;16.80;;;8.88;;
76610;SDS011;65503;48.534;9.062;2023-09-12T06:15:49;12.45;;;8.88;;
76610;SDS011;65503;48.534;9.062;2023-09-12T06:18:15;12.88;;;8.30;;
76610;SDS011;65503;48.534;9.062;2023-09-12T06:20:42;13.18;;;7.78;;
76610;SDS011;65503;48.534;9.062;2023-09-12T06:23:08;14.15;;;8.55;;
76610;SDS011;65503;48.534;9.062;2023-09-12T06:25:36;15.90;;;8.88;;
76610;SDS011;65503;48.534;9.062;2023-09-12T06:28:03;12.82;;;8.15;;
76610;SDS011;65503;48.534;9.062;2023-09-12T06:30:30;12.60;;;8.07;;
76610;SDS011;65503;48.534;9.062;2023-09-12T06:32:56;17.52;;;9.07;;
76610;SDS011;65503;48.534;9.062;2023-09-12T06:35:23;15.38;;;8.63;;
76610;SDS011;65503;48.534;9.062;2023-09-12T06:37:49;14.98;;;8.60;;
76610;SDS011;65503;48.534;9.062;2023-09-12T06:40:16;13.82;;;8.70;;
76610;SDS011;65503;48.534;9.062;2023-09-12T06:42:42;14.93;;;8.35;;
76610;SDS011;65503;48.534;9.062;2023-09-12T06:45:10;11.15;;;8.23;;
76610;SDS011;65503;48.534;9.062;2023-09-12T06:47:36;14.63;;;8.52;;
76610;SDS011;65503;48.534;9.062;2023-09-12T06:50:03;12.90;;;8.45;;
76610;SDS011;65503;48.534;9.062;2023-09-12T06:52:33;15.43;;;8.45;;
76610;SDS011;65503;48.534;9.062;2023-09-12T06:54:59;16.35;;;9.48;;
76610;SDS011;65503;48.534;9.062;2023-09-12T06:57:26;17.33;;;8.48;;
76610;SDS011;65503;48.534;9.062;2023-09-12T06:59:52;16.55;;;9.35;;
76610;SDS011;65503;48.534;9.062;2023-09-12T07:02:19;15.07;;;9.15;;
76610;SDS011;65503;48.534;9.062;2023-09-12T07:04:46;13.10;;;8.70;;
76610;SDS011;65503;48.534;9.062;2023-09-12T07:07:12;15.98;;;9.05;;
76610;SDS011;65503;48.534;9.062;2023-09-12T07:09:39;15.75;;;8.65;;
76610;SDS011;65503;48.534;9.062;2023-09-12T07:12:05;17.30;;;10.00;;
76610;SDS011;65503;48.534;9.062;2023-09-12T07:14:32;17.77;;;8.68;;
76610;SDS011;65503;48.534;9.062;2023-09-12T07:16:59;14.68;;;8.40;;
76610;SDS011;65503;48.534;9.062;2023-09-12T07:19:25;14.02;;;8.00;;
76610;SDS011;65503;48.534;9.062;2023-09-12T07:21:51;17.83;;;8.65;;
76610;SDS011;65503;48.534;9.062;2023-09-12T07:24:18;15.73;;;8.38;;
76610;SDS011;65503;48.534;9.062;2023-09-12T07:26:44;16.52;;;8.55;;
76610;SDS011;65503;48.534;9.062;2023-09-12T07:29:13;15.48;;;8.07;;
76610;SDS011;65503;48.534;9.062;2023-09-12T07:31:39;12.82;;;7.60;;
76610;SDS011;65503;48.534;9.062;2023-09-12T07:34:06;16.10;;;8.65;;
76610;SDS011;65503;48.534;9.062;2023-09-12T07:36:34;11.70;;;7.80;;
76610;SDS011;65503;48.534;9.062;2023-09-12T07:39:01;11.85;;;7.63;;
76610;SDS011;65503;48.534;9.062;2023-09-12T07:41:28;14.63;;;7.65;;
76610;SDS011;65503;48.534;9.062;2023-09-12T07:46:21;13.98;;;7.60;;
76610;SDS011;65503;48.534;9.062;2023-09-12T07:48:48;12.30;;;7.50;;
76610;SDS011;65503;48.534;9.062;2023-09-12T07:51:14;15.02;;;7.53;;
76610;SDS011;65503;48.534;9.062;2023-09-12T07:53:43;15.85;;;7.90;;
76610;SDS011;65503;48.534;9.062;2023-09-12T07:58:37;14.88;;;7.38;;
76610;SDS011;65503;48.534;9.062;2023-09-12T08:01:07;13.50;;;8.25;;
76610;SDS011;65503;48.534;9.062;2023-09-12T08:03:34;13.32;;;7.30;;
76610;SDS011;65503;48.534;9.062;2023-09-12T08:06:03;13.98;;;8.30;;
76610;SDS011;65503;48.534;9.062;2023-09-12T08:08:29;15.05;;;7.80;;
76610;SDS011;65503;48.534;9.062;2023-09-12T08:13:26;12.40;;;7.18;;
76610;SDS011;65503;48.534;9.062;2023-09-12T08:15:54;15.05;;;7.70;;
76610;SDS011;65503;48.534;9.062;2023-09-12T08:18:21;15.40;;;7.35;;
76610;SDS011;65503;48.534;9.062;2023-09-12T08:23:14;13.32;;;6.50;;
76610;SDS011;65503;48.534;9.062;2023-09-12T08:25:41;15.00;;;6.72;;
76610;SDS011;65503;48.534;9.062;2023-09-12T08:28:07;12.85;;;6.85;;
76610;SDS011;65503;48.534;9.062;2023-09-12T08:30:34;13.38;;;7.20;;
76610;SDS011;65503;48.534;9.062;2023-09-12T08:35:30;20.88;;;7.05;;
76610;SDS011;65503;48.534;9.062;2023-09-12T08:37:56;14.75;;;6.93;;
76610;SDS011;65503;48.534;9.062;2023-09-12T08:40:23;12.73;;;6.70;;
76610;SDS011;65503;48.534;9.062;2023-09-12T08:42:49;13.05;;;6.15;;
76610;SDS011;65503;48.534;9.062;2023-09-12T08:45:18;9.07;;;6.05;;
76610;SDS011;65503;48.534;9.062;2023-09-12T08:47:48;10.25;;;6.53;;
76610;SDS011;65503;48.534;9.062;2023-09-12T08:50:17;12.50;;;7.20;;
76610;SDS011;65503;48.534;9.062;2023-09-12T08:52:44;12.13;;;6.57;;
76610;SDS011;65503;48.534;9.062;2023-09-12T08:55:31;14.13;;;7.28;;
76610;SDS011;65503;48.534;9.062;2023-09-12T08:58:02;11.43;;;6.40;;
76610;SDS011;65503;48.534;9.062;2023-09-12T09:00:29;10.07;;;7.45;;
76610;SDS011;65503;48.534;9.062;2023-09-12T09:02:56;10.65;;;7.50;;
76610;SDS011;65503;48.534;9.062;2023-09-12T09:05:24;14.43;;;6.78;;
76610;SDS011;65503;48.534;9.062;2023-09-12T09:07:51;11.65;;;6.50;;
76610;SDS011;65503;48.534;9.062;2023-09-12T09:10:18;16.17;;;7.20;;
76610;SDS011;65503;48.534;9.062;2023-09-12T09:13:06;10.82;;;6.85;;
76610;SDS011;65503;48.534;9.062;2023-09-12T09:15:35;13.05;;;6.72;;
76610;SDS011;65503;48.534;9.062;2023-09-12T09:18:04;12.60;;;7.00;;
76610;SDS011;65503;48.534;9.062;2023-09-12T09:20:33;11.52;;;6.15;;
76610;SDS011;65503;48.534;9.062;2023-09-12T09:23:04;16.23;;;6.82;;
76610;SDS011;65503;48.534;9.062;2023-09-12T09:25:32;11.25;;;6.40;;
76610;SDS011;65503;48.534;9.062;2023-09-12T09:28:15;9.30;;;6.30;;
76610;SDS011;65503;48.534;9.062;2023-09-12T09:30:43;11.20;;;7.65;;
76610;SDS011;65503;48.534;9.062;2023-09-12T09:33:12;10.05;;;7.97;;
76610;SDS011;65503;48.534;9.062;2023-09-12T09:35:43;13.82;;;7.20;;
76610;SDS011;65503;48.534;9.062;2023-09-12T09:38:12;10.50;;;7.25;;
76610;SDS011;65503;48.534;9.062;2023-09-12T09:40:49;11.55;;;6.10;;
76610;SDS011;65503;48.534;9.062;2023-09-12T09:43:20;13.25;;;7.40;;
76610;SDS011;65503;48.534;9.062;2023-09-12T09:45:47;8.88;;;6.65;;
76610;SDS011;65503;48.534;9.062;2023-09-12T09:48:18;12.43;;;6.55;;
76610;SDS011;65503;48.534;9.062;2023-09-12T09:50:45;12.02;;;6.95;;
76610;SDS011;65503;48.534;9.062;2023-09-12T09:53:11;11.18;;;6.78;;
76610;SDS011;65503;48.534;9.062;2023-09-12T09:55:38;11.40;;;6.65;;
76610;SDS011;65503;48.534;9.062;2023-09-12T10:00:33;9.65;;;6.53;;
76610;SDS011;65503;48.534;9.062;2023-09-12T10:03:05;15.73;;;7.47;;
76610;SDS011;65503;48.534;9.062;2023-09-12T10:05:33;12.50;;;6.70;;
76610;SDS011;65503;48.534;9.062;2023-09-12T10:08:00;11.00;;;7.60;;
76610;SDS011;65503;48.534;9.062;2023-09-12T10:10:29;12.50;;;6.47;;
76610;SDS011;65503;48.534;9.062;2023-09-12T10:12:56;10.40;;;6.70;;
76610;SDS011;65503;48.534;9.062;2023-09-12T10:15:28;10.73;;;5.78;;
76610;SDS011;65503;48.534;9.062;2023-09-12T10:17:59;8.55;;;5.85;;
76610;SDS011;65503;48.534;9.062;2023-09-12T10:20:50;12.68;;;6.45;;
76610;SDS011;65503;48.534;9.062;2023-09-12T10:24:03;8.20;;;5.85;;
76610;SDS011;65503;48.534;9.062;2023-09-12T10:26:12;12.43;;;6.35;;
76610;SDS011;65503;48.534;9.062;2023-09-12T10:28:42;10.60;;;6.43;;
76610;SDS011;65503;48.534;9.062;2023-09-12T10:31:11;10.63;;;6.25;;
76610;SDS011;65503;48.534;9.062;2023-09-12T10:33:39;9.85;;;6.22;;
76610;SDS011;65503;48.534;9.062;2023-09-12T10:36:06;9.60;;;6.32;;
76610;SDS011;65503;48.534;9.062;2023-09-12T10:38:40;11.77;;;6.82;;
76610;SDS011;65503;48.534;9.062;2023-09-12T10:41:12;9.90;;;6.18;;
76610;SDS011;65503;48.534;9.062;2023-09-12T10:46:13;9.77;;;6.43;;
76610;SDS011;65503;48.534;9.062;2023-09-12T10:48:39;13.25;;;6.97;;
76610;SDS011;65503;48.534;9.062;2023-09-12T10:51:07;15.35;;;6.97;;
76610;SDS011;65503;48.534;9.062;2023-09-12T10:53:34;8.63;;;5.65;;
76610;SDS011;65503;48.534;9.062;2023-09-12T11:01:33;9.48;;;5.68;;
76610;SDS011;65503;48.534;9.062;2023-09-12T11:06:49;12.07;;;6.28;;
76610;SDS011;65503;48.534;9.062;2023-09-12T11:09:17;11.13;;;5.97;;
76610;SDS011;65503;48.534;9.062;2023-09-12T11:11:47;14.43;;;5.53;;
76610;SDS011;65503;48.534;9.062;2023-09-12T11:14:36;7.72;;;5.53;;
76610;SDS011;65503;48.534;9.062;2023-09-12T11:19:43;11.98;;;6.65;;
76610;SDS011;65503;48.534;9.062;2023-09-12T11:22:28;8.75;;;6.13;;
76610;SDS011;65503;48.534;9.062;2023-09-12T11:24:57;8.77;;;5.75;;
76610;SDS011;65503;48.534;9.062;2023-09-12T11:27:43;8.00;;;5.13;;
76610;SDS011;65503;48.534;9.062;2023-09-12T11:30:17;7.30;;;4.97;;
76610;SDS011;65503;48.534;9.062;2023-09-12T11:32:45;8.55;;;5.43;;
76610;SDS011;65503;48.534;9.062;2023-09-12T11:35:14;7.63;;;5.60;;
76610;SDS011;65503;48.534;9.062;2023-09-12T11:37:47;8.73;;;6.03;;
76610;SDS011;65503;48.534;9.062;2023-09-12T11:40:23;7.03;;;5.28;;
76610;SDS011;65503;48.534;9.062;2023-09-12T11:42:51;7.88;;;5.15;;
76610;SDS011;65503;48.534;9.062;2023-09-12T11:45:19;10.38;;;5.38;;
76610;SDS011;65503;48.534;9.062;2023-09-12T11:47:47;8.73;;;5.00;;
76610;SDS011;65503;48.534;9.062;2023-09-12T11:50:30;7.00;;;5.20;;
76610;SDS011;65503;48.534;9.062;2023-09-12T11:52:59;9.20;;;4.97;;
76610;SDS011;65503;48.534;9.062;2023-09-12T11:55:31;8.20;;;5.15;;
76610;SDS011;65503;48.534;9.062;2023-09-12T11:58:01;7.85;;;5.22;;
76610;SDS011;65503;48.534;9.062;2023-09-12T12:00:29;8.20;;;4.68;;
76610;SDS011;65503;48.534;9.062;2023-09-12T12:02:56;6.78;;;4.28;;
76610;SDS011;65503;48.534;9.062;2023-09-12T12:05:22;8.93;;;4.40;;
76610;SDS011;65503;48.534;9.062;2023-09-12T12:07:49;6.43;;;4.30;;
76610;SDS011;65503;48.534;9.062;2023-09-12T12:10:16;7.97;;;4.78;;
76610;SDS011;65503;48.534;9.062;2023-09-12T12:12:44;6.82;;;4.22;;
76610;SDS011;65503;48.534;9.062;2023-09-12T12:15:13;7.63;;;4.90;;
76610;SDS011;65503;48.534;9.062;2023-09-12T12:17:42;9.60;;;4.93;;
76610;SDS011;65503;48.534;9.062;2023-09-12T12:20:09;8.13;;;4.97;;
76610;SDS011;65503;48.534;9.062;2023-09-12T12:22:37;7.18;;;4.20;;
76610;SDS011;65503;48.534;9.062;2023-09-12T12:25:08;9.70;;;4.90;;
76610;SDS011;65503;48.534;9.062;2023-09-12T12:27:39;8.43;;;5.13;;
76610;SDS011;65503;48.534;9.062;2023-09-12T12:30:07;7.90;;;4.95;;
76610;SDS011;65503;48.534;9.062;2023-09-12T12:32:41;7.90;;;5.13;;
76610;SDS011;65503;48.534;9.062;2023-09-12T12:35:09;6.40;;;4.72;;
76610;SDS011;65503;48.534;9.062;2023-09-12T12:37:56;6.90;;;4.57;;
76610;SDS011;65503;48.534;9.062;2023-09-12T12:40:36;7.70;;;5.43;;
76610;SDS011;65503;48.534;9.062;2023-09-12T12:43:16;9.68;;;5.75;;
76610;SDS011;65503;48.534;9.062;2023-09-12T12:45:52;7.20;;;5.50;;
76610;SDS011;65503;48.534;9.062;2023-09-12T12:48:31;9.63;;;5.30;;
76610;SDS011;65503;48.534;9.062;2023-09-12T12:50:59;7.88;;;5.00;;
76610;SDS011;65503;48.534;9.062;2023-09-12T12:53:41;8.32;;;5.28;;
76610;SDS011;65503;48.534;9.062;2023-09-12T12:56:23;8.25;;;5.40;;
76610;SDS011;65503;48.534;9.062;2023-09-12T12:58:57;7.53;;;5.40;;
76610;SDS011;65503;48.534;9.062;2023-09-12T13:01:24;9.20;;;6.07;;
76610;SDS011;65503;48.534;9.062;2023-09-12T13:03:51;9.20;;;5.90;;
76610;SDS011;65503;48.534;9.062;2023-09-12T13:06:19;7.65;;;5.38;;
76610;SDS011;65503;48.534;9.062;2023-09-12T13:08:46;8.30;;;6.60;;
76610;SDS011;65503;48.534;9.062;2023-09-12T13:11:15;7.70;;;5.13;;
76610;SDS011;65503;48.534;9.062;2023-09-12T13:13:44;11.35;;;5.30;;
76610;SDS011;65503;48.534;9.062;2023-09-12T13:16:12;8.18;;;5.97;;
76610;SDS011;65503;48.534;9.062;2023-09-12T13:18:40;8.27;;;5.63;;
76610;SDS011;65503;48.534;9.062;2023-09-12T13:21:07;8.57;;;5.60;;
76610;SDS011;65503;48.534;9.062;2023-09-12T13:23:35;7.25;;;5.55;;
76610;SDS011;65503;48.534;9.062;2023-09-12T13:26:03;9.73;;;5.28;;
76610;SDS011;65503;48.534;9.062;2023-09-12T13:28:30;8.57;;;5.20;;
76610;SDS011;65503;48.534;9.062;2023-09-12T13:30:56;8.82;;;4.90;;
76610;SDS011;65503;48.534;9.062;2023-09-12T13:33:26;9.63;;;5.65;;
76610;SDS011;65503;48.534;9.062;2023-09-12T13:35:53;6.82;;;5.25;;
76610;SDS011;65503;48.534;9.062;2023-09-12T13:38:19;10.35;;;5.28;;
76610;SDS011;65503;48.534;9.062;2023-09-12T13:40:46;10.93;;;5.60;;
76610;SDS011;65503;48.534;9.062;2023-09-12T13:43:12;8.07;;;5.90;;
76610;SDS011;65503;48.534;9.062;2023-09-12T13:45:39;8.48;;;6.05;;
76610;SDS011;65503;48.534;9.062;2023-09-12T13:48:06;8.35;;;5.40;;
76610;SDS011;65503;48.534;9.062;2023-09-12T13:50:34;9.35;;;5.60;;
76610;SDS011;65503;48.534;9.062;2023-09-12T13:53:01;7.65;;;5.50;;
76610;SDS011;65503;48.534;9.062;2023-09-12T13:55:30;9.45;;;5.38;;
76610;SDS011;65503;48.534;9.062;2023-09-12T14:00:43;7.63;;;5.50;;
76610;SDS011;65503;48.534;9.062;2023-09-12T14:03:10;8.88;;;5.30;;
76610;SDS011;65503;48.534;9.062;2023-09-12T14:05:37;8.23;;;5.00;;
76610;SDS011;65503;48.534;9.062;2023-09-12T14:08:04;8.88;;;5.38;;
76610;SDS011;65503;48.534;9.062;2023-09-12T14:10:31;8.00;;;4.68;;
76610;SDS011;65503;48.534;9.062;2023-09-12T14:13:03;9.98;;;5.15;;
76610;SDS011;65503;48.534;9.062;2023-09-12T14:15:46;7.43;;;5.00;;
76610;SDS011;65503;48.534;9.062;2023-09-12T14:18:13;9.98;;;5.13;;
76610;SDS011;65503;48.534;9.062;2023-09-12T14:20:40;9.13;;;4.95;;
76610;SDS011;65503;48.534;9.062;2023-09-12T14:23:06;9.25;;;4.88;;
76610;SDS011;65503;48.534;9.062;2023-09-12T14:25:33;7.35;;;4.95;;
76610;SDS011;65503;48.534;9.062;2023-09-12T14:28:01;7.60;;;4.28;;
76610;SDS011;65503;48.534;9.062;2023-09-12T14:30:31;11.00;;;4.63;;
76610;SDS011;65503;48.534;9.062;2023-09-12T14:33:02;7.53;;;4.45;;
76610;SDS011;65503;48.534;9.062;2023-09-12T14:35:29;6.78;;;4.60;;
76610;SDS011;65503;48.534;9.062;2023-09-12T14:37:56;8.63;;;5.10;;
76610;SDS011;65503;48.534;9.062;2023-09-12T14:40:23;7.22;;;4.85;;
76610;SDS011;65503;48.534;9.062;2023-09-12T14:45:16;7.80;;;5.50;;
76610;SDS011;65503;48.534;9.062;2023-09-12T14:47:43;7.18;;;4.45;;
76610;SDS011;65503;48.534;9.062;2023-09-12T14:50:10;9.75;;;4.97;;
76610;SDS011;65503;48.534;9.062;2023-09-12T14:52:37;8.30;;;5.22;;
76610;SDS011;65503;48.534;9.062;2023-09-12T14:55:05;6.95;;;5.05;;
76610;SDS011;65503;48.534;9.062;2023-09-12T14:57:34;9.35;;;5.40;;
76610;SDS011;65503;48.534;9.062;2023-09-12T15:00:01;7.30;;;5.20;;
76610;SDS011;65503;48.534;9.062;2023-09-12T15:04:59;10.40;;;5.60;;
76610;SDS011;65503;48.534;9.062;2023-09-12T15:07:27;7.65;;;5.10;;
76610;SDS011;65503;48.534;9.062;2023-09-12T15:09:56;10.63;;;6.00;;
76610;SDS011;65503;48.534;9.062;2023-09-12T15:12:23;9.57;;;5.72;;
76610;SDS011;65503;48.534;9.062;2023-09-12T15:14:50;8.65;;;6.05;;
76610;SDS011;65503;48.534;9.062;2023-09-12T15:17:17;8.65;;;6.20;;
76610;SDS011;65503;48.534;9.062;2023-09-12T15:19:44;10.55;;;6.68;;
76610;SDS011;65503;48.534;9.062;2023-09-12T15:22:11;9.00;;;6.50;;